createdAt,value
2018-03-20T00:02:06.584Z,95.77
2018-03-20T00:04:35.902Z,87.97
2018-03-20T00:07:05.329Z,107.80
2018-03-20T00:09:34.669Z,116.77
2018-03-20T00:12:05.362Z,83.37
2018-03-20T00:14:36.506Z,90.70
2018-03-20T00:17:07.828Z,89.67
2018-03-20T00:19:37.277Z,88.90
2018-03-20T00:22:06.579Z,89.03
2018-03-20T00:24:36.063Z,90.37
2018-03-20T00:27:06.350Z,94.47
2018-03-20T00:29:35.807Z,93.90
2018-03-20T00:32:05.813Z,87.43
2018-03-20T00:34:35.232Z,84.10
2018-03-20T00:37:04.772Z,86.83
2018-03-20T00:39:34.465Z,86.93
2018-03-20T00:42:05.318Z,93.47
2018-03-20T00:44:34.784Z,93.43
2018-03-20T00:47:08.905Z,89.80
2018-03-20T00:49:43.940Z,94.33
2018-03-20T00:52:13.914Z,99.03
2018-03-20T00:54:51.150Z,119.83
2018-03-20T00:57:21.625Z,97.20
2018-03-20T00:59:52.230Z,96.63
2018-03-20T01:05:43.072Z,79.03
2018-03-20T01:08:19.181Z,102.50
2018-03-20T01:10:48.603Z,108.20
2018-03-20T01:13:21.416Z,93.90
2018-03-20T01:15:51.434Z,107.53
2018-03-20T01:18:29.029Z,103.17
2018-03-20T01:21:14.951Z,131.37
2018-03-20T01:26:39.657Z,107.63
2018-03-20T01:29:16.670Z,100.73
2018-03-20T01:31:46.099Z,217.77
2018-03-20T01:34:17.268Z,104.27
2018-03-20T01:36:48.753Z,97.70
2018-03-20T01:39:22.384Z,88.97
2018-03-20T01:41:51.800Z,105.50
2018-03-20T01:44:21.148Z,103.70
2018-03-20T01:46:50.514Z,119.20
2018-03-20T01:49:20.633Z,112.43
2018-03-20T01:55:46.921Z,106.30
2018-03-20T01:58:16.631Z,126.10
2018-03-20T02:04:08.081Z,118.93
2018-03-20T02:06:38.793Z,114.77
2018-03-20T02:09:09.117Z,124.67
2018-03-20T02:11:39.917Z,109.00
2018-03-20T02:14:11.663Z,100.93
2018-03-20T02:16:41.184Z,113.73
2018-03-20T02:19:11.642Z,118.83
2018-03-20T02:21:42.396Z,101.83
2018-03-20T02:24:32.150Z,142.87
2018-03-20T02:36:58.722Z,144.70
2018-03-20T02:39:28.026Z,113.90
2018-03-20T02:44:36.153Z,128.93
2018-03-20T02:49:52.601Z,128.90
2018-03-20T02:52:26.194Z,118.97
2018-03-20T02:54:56.303Z,129.13
2018-03-20T02:57:30.308Z,132.27
2018-03-20T03:00:11.498Z,115.73
2018-03-20T03:02:49.268Z,126.90
2018-03-20T03:05:34.440Z,149.83
2018-03-20T03:08:05.054Z,128.50
2018-03-20T03:16:25.457Z,122.07
2018-03-20T03:18:59.458Z,132.73
2018-03-20T03:21:29.691Z,145.93
2018-03-20T03:23:59.037Z,144.03
2018-03-20T03:26:28.442Z,130.83
2018-03-20T03:28:57.706Z,120.17
2018-03-20T03:31:27.163Z,120.70
2018-03-20T03:33:57.466Z,140.47
2018-03-20T03:36:32.399Z,129.83
2018-03-20T03:39:01.782Z,124.47
2018-03-20T03:41:31.133Z,130.43
2018-03-20T03:44:00.579Z,129.23
2018-03-20T03:46:31.673Z,119.43
2018-03-20T03:49:02.025Z,136.43
2018-03-20T03:51:31.374Z,114.40
2018-03-20T03:54:00.745Z,125.53
2018-03-20T03:56:31.705Z,118.60
2018-03-20T03:59:02.011Z,109.80
2018-03-20T04:01:31.296Z,110.77
2018-03-20T04:04:01.496Z,118.57
2018-03-20T04:06:30.861Z,137.70
2018-03-20T04:09:00.204Z,101.97
2018-03-20T04:11:29.685Z,105.73
2018-03-20T04:13:59.206Z,108.83
2018-03-20T04:16:28.420Z,121.57
2018-03-20T04:18:57.944Z,139.87
2018-03-20T04:21:32.945Z,121.80
2018-03-20T04:24:06.982Z,136.37
2018-03-20T04:26:36.260Z,139.70
2018-03-20T04:29:06.532Z,124.90
2018-03-20T04:31:36.053Z,152.97
2018-03-20T04:34:05.431Z,154.17
2018-03-20T04:36:34.779Z,122.50
2018-03-20T04:39:04.518Z,123.03
2018-03-20T04:41:33.989Z,137.40
2018-03-20T04:47:24.741Z,142.40
2018-03-20T04:49:54.363Z,152.00
2018-03-20T04:52:24.350Z,150.63
2018-03-20T04:54:54.026Z,132.07
2018-03-20T04:57:23.647Z,359.33
2018-03-20T04:59:53.339Z,129.97
2018-03-20T05:05:22.299Z,146.23
2018-03-20T05:07:52.712Z,130.33
2018-03-20T05:10:22.348Z,125.67
2018-03-20T05:12:52.500Z,163.17
2018-03-20T05:15:22.602Z,120.93
2018-03-20T05:18:02.011Z,141.00
2018-03-20T05:20:53.034Z,153.53
2018-03-20T05:23:27.851Z,142.20
2018-03-20T05:29:28.435Z,118.03
2018-03-20T05:31:58.083Z,140.23
2018-03-20T05:34:27.975Z,122.93
2018-03-20T05:36:58.087Z,275.00
2018-03-20T05:39:28.560Z,130.97
2018-03-20T05:41:58.231Z,113.80
2018-03-20T05:44:27.965Z,120.60
2018-03-20T05:47:16.918Z,127.70
2018-03-20T05:49:52.450Z,133.03
2018-03-20T05:52:25.461Z,135.50
2018-03-20T05:54:55.163Z,123.20
2018-03-20T05:57:24.649Z,131.50
2018-03-20T05:59:55.133Z,140.43
2018-03-20T06:02:25.783Z,117.57
2018-03-20T06:04:55.307Z,176.97
2018-03-20T06:07:26.155Z,134.73
2018-03-20T06:09:56.643Z,140.37
2018-03-20T06:12:27.001Z,137.23
2018-03-20T06:14:57.550Z,117.73
2018-03-20T06:17:27.031Z,99.93
2018-03-20T06:19:58.243Z,115.43
2018-03-20T06:22:27.725Z,105.70
2018-03-20T06:24:57.785Z,100.37
2018-03-20T06:27:27.767Z,112.43
2018-03-20T06:29:57.235Z,94.13
2018-03-20T06:32:26.952Z,98.20
2018-03-20T06:34:56.465Z,106.73
2018-03-20T06:37:28.732Z,95.70
2018-03-20T06:39:58.245Z,105.63
2018-03-20T06:42:27.721Z,95.37
2018-03-20T06:44:58.037Z,98.20
2018-03-20T06:47:35.277Z,105.27
2018-03-20T06:50:04.946Z,109.47
2018-03-20T06:52:35.182Z,114.67
2018-03-20T06:55:04.810Z,108.93
2018-03-20T06:57:34.303Z,109.10
2018-03-20T07:00:03.812Z,109.80
2018-03-20T07:02:33.401Z,116.20
2018-03-20T07:05:02.987Z,110.03
2018-03-20T07:07:32.525Z,114.20
2018-03-20T07:10:02.071Z,122.43
2018-03-20T07:12:31.595Z,117.97
2018-03-20T07:15:01.044Z,117.90
2018-03-20T07:17:30.742Z,120.20
2018-03-20T07:20:00.225Z,125.97
2018-03-20T07:22:29.783Z,133.73
2018-03-20T07:24:59.684Z,133.70
2018-03-20T07:27:29.175Z,125.40
2018-03-20T07:29:59.514Z,124.87
2018-03-20T07:32:29.018Z,129.60
2018-03-20T07:34:58.563Z,128.17
2018-03-20T07:37:28.165Z,128.67
2018-03-20T07:39:57.711Z,119.40
2018-03-20T07:42:28.059Z,133.83
2018-03-20T07:44:58.858Z,130.80
2018-03-20T07:47:28.464Z,130.13
2018-03-20T07:49:57.971Z,125.10
2018-03-20T07:55:48.505Z,112.87
2018-03-20T07:58:17.971Z,119.63
2018-03-20T08:00:47.463Z,118.37
2018-03-20T08:06:49.060Z,113.90
2018-03-20T08:09:18.908Z,116.87
2018-03-20T08:11:48.927Z,126.23
2018-03-20T08:14:19.764Z,137.40
2018-03-20T08:20:20.570Z,118.67
2018-03-20T08:23:28.338Z,109.70
2018-03-20T08:25:58.464Z,128.00
2018-03-20T08:28:27.770Z,111.63
2018-03-20T08:30:57.202Z,115.53
2018-03-20T08:33:26.642Z,110.63
2018-03-20T08:35:55.940Z,101.47
2018-03-20T08:38:25.359Z,112.67
2018-03-20T08:40:54.707Z,108.27
2018-03-20T08:46:45.362Z,105.17
2018-03-20T08:49:14.908Z,106.80
2018-03-20T08:51:44.533Z,119.33
2018-03-20T08:54:14.123Z,106.73
2018-03-20T08:56:43.646Z,107.97
2018-03-20T08:59:13.209Z,100.40
2018-03-20T09:01:42.911Z,109.93
2018-03-20T09:04:12.489Z,110.07
2018-03-20T09:06:42.011Z,118.77
2018-03-20T09:09:11.887Z,116.00
2018-03-20T09:11:41.440Z,115.37
2018-03-20T09:14:11.054Z,124.83
2018-03-20T09:16:40.643Z,125.93
2018-03-20T09:19:10.207Z,115.67
2018-03-20T09:21:40.577Z,115.80
2018-03-20T09:27:31.772Z,118.37
2018-03-20T09:33:34.158Z,126.77
2018-03-20T09:36:51.750Z,124.43
2018-03-20T09:39:21.537Z,125.93
2018-03-20T09:41:52.173Z,141.93
2018-03-20T09:44:22.012Z,146.73
2018-03-20T09:46:51.770Z,154.87
2018-03-20T09:49:22.483Z,159.73
2018-03-20T09:51:52.425Z,181.67
2018-03-20T09:54:22.253Z,159.33
2018-03-20T09:56:52.049Z,179.23
2018-03-20T09:59:22.197Z,175.73
2018-03-20T10:01:52.051Z,173.27
2018-03-20T10:04:22.015Z,166.43
2018-03-20T10:06:51.573Z,165.30
2018-03-20T10:09:22.133Z,157.47
2018-03-20T10:11:52.518Z,162.73
2018-03-20T10:14:22.468Z,162.07
2018-03-20T10:16:52.263Z,149.57
2018-03-20T10:19:22.197Z,148.37
2018-03-20T10:21:51.989Z,134.30
2018-03-20T10:24:21.382Z,148.47
2018-03-20T10:26:51.399Z,157.03
2018-03-20T10:29:21.202Z,158.70
2018-03-20T10:31:51.218Z,152.27
2018-03-20T10:34:21.027Z,175.10
2018-03-20T10:36:50.970Z,153.67
2018-03-20T10:39:20.788Z,167.87
2018-03-20T10:41:51.020Z,161.50
2018-03-20T10:44:21.970Z,163.83
2018-03-20T10:46:52.315Z,160.13
2018-03-20T10:49:22.344Z,182.43
2018-03-20T10:51:52.228Z,184.50
2018-03-20T10:54:22.178Z,184.70
2018-03-20T10:56:52.557Z,188.70
2018-03-20T10:59:22.317Z,172.53
2018-03-20T11:01:52.472Z,168.77
2018-03-20T11:04:22.486Z,164.83
2018-03-20T11:06:52.458Z,178.13
2018-03-20T11:09:23.937Z,192.57
2018-03-20T11:11:53.879Z,194.83
2018-03-20T11:14:24.686Z,198.50
2018-03-20T11:16:55.127Z,210.37
2018-03-20T11:19:25.032Z,204.67
2018-03-20T11:21:55.150Z,199.60
2018-03-20T11:24:24.573Z,217.63
2018-03-20T11:26:55.301Z,225.47
2018-03-20T11:29:25.567Z,227.67
2018-03-20T11:31:55.781Z,199.37
2018-03-20T11:34:26.439Z,189.47
2018-03-20T11:36:57.158Z,224.13
2018-03-20T11:39:27.087Z,221.43
2018-03-20T11:41:57.639Z,197.53
2018-03-20T11:44:27.645Z,221.63
2018-03-20T11:46:57.573Z,204.77
2018-03-20T11:49:28.121Z,193.13
2018-03-20T11:51:58.010Z,164.97
2018-03-20T11:54:28.393Z,146.93
2018-03-20T12:00:18.426Z,123.90
2018-03-20T12:02:47.826Z,139.13
2018-03-20T12:05:17.132Z,117.87
2018-03-20T12:07:56.147Z,179.03
2018-03-20T12:10:26.516Z,118.17
2018-03-20T12:12:55.851Z,108.73
2018-03-20T12:15:25.602Z,125.43
2018-03-20T12:17:54.997Z,117.37
2018-03-20T12:20:24.389Z,108.33
2018-03-20T12:22:53.793Z,121.83
2018-03-20T12:25:23.336Z,104.83
2018-03-20T12:27:53.723Z,114.67
2018-03-20T12:32:58.273Z,106.30
2018-03-20T12:39:03.249Z,112.00
2018-03-20T12:41:32.656Z,114.67
2018-03-20T12:44:02.749Z,110.27
2018-03-20T12:46:34.275Z,115.93
2018-03-20T12:49:09.147Z,123.07
2018-03-20T12:51:38.549Z,119.93
2018-03-20T12:54:08.056Z,116.00
2018-03-20T12:56:37.655Z,112.40
2018-03-20T12:59:08.617Z,124.43
2018-03-20T13:04:18.523Z,109.63
2018-03-20T13:06:47.956Z,121.33
2018-03-20T13:09:17.639Z,123.60
2018-03-20T13:11:47.454Z,116.53
2018-03-20T13:14:16.882Z,112.40
2018-03-20T13:16:46.197Z,121.80
2018-03-20T13:19:16.384Z,130.33
2018-03-20T13:21:47.351Z,119.53
2018-03-20T13:24:18.823Z,130.70
2018-03-20T13:26:48.266Z,122.80
2018-03-20T13:29:20.458Z,105.67
2018-03-20T13:31:58.923Z,114.40
2018-03-20T13:34:28.503Z,97.87
2018-03-20T13:36:59.056Z,139.57
2018-03-20T13:39:28.927Z,128.63
2018-03-20T13:41:58.823Z,115.17
2018-03-20T13:44:29.962Z,100.97
2018-03-20T13:46:59.255Z,109.20
2018-03-20T13:49:28.683Z,106.77
2018-03-20T13:51:58.799Z,98.07
2018-03-20T13:54:29.042Z,103.83
2018-03-20T13:56:58.525Z,104.27
2018-03-20T13:59:27.897Z,104.27
2018-03-20T14:01:57.304Z,106.63
2018-03-20T14:04:30.349Z,88.33
2018-03-20T14:07:00.452Z,114.63
2018-03-20T14:09:30.587Z,89.70
2018-03-20T14:11:59.979Z,91.67
2018-03-20T14:14:29.362Z,76.90
2018-03-20T14:16:58.743Z,80.10
2018-03-20T14:19:34.212Z,59.23
2018-03-20T14:22:03.444Z,52.73
2018-03-20T14:24:32.957Z,58.70
2018-03-20T14:27:04.026Z,56.67
2018-03-20T14:29:33.434Z,41.77
2018-03-20T14:32:02.728Z,51.07
2018-03-20T14:34:32.095Z,43.73
2018-03-20T14:37:01.494Z,36.40
2018-03-20T14:39:31.452Z,42.87
2018-03-20T14:42:01.309Z,34.73
2018-03-20T14:47:52.724Z,34.97
2018-03-20T14:50:23.288Z,36.70
2018-03-20T14:52:53.061Z,44.87
2018-03-20T14:55:22.885Z,42.43
2018-03-20T14:57:55.147Z,51.53
2018-03-20T15:00:25.678Z,56.13
2018-03-20T15:02:57.225Z,60.27
2018-03-20T15:05:27.840Z,47.73
2018-03-20T15:07:58.949Z,59.80
2018-03-20T15:10:28.821Z,46.00
2018-03-20T15:12:58.628Z,51.30
2018-03-20T15:15:28.971Z,43.33
2018-03-20T15:18:01.945Z,33.87
2018-03-20T15:20:31.739Z,27.43
2018-03-20T15:23:03.983Z,36.17
2018-03-20T15:25:33.785Z,34.20
2018-03-20T15:28:05.227Z,45.17
2018-03-20T15:30:35.959Z,36.57
2018-03-20T15:33:05.787Z,45.90
2018-03-20T15:35:35.553Z,44.73
2018-03-20T15:38:05.469Z,39.33
2018-03-20T15:40:35.214Z,36.87
2018-03-20T15:43:05.512Z,37.40
2018-03-20T15:45:35.704Z,38.63
2018-03-20T15:48:21.980Z,41.23
2018-03-20T15:50:54.176Z,40.90
2018-03-20T15:53:25.742Z,40.43
2018-03-20T15:55:56.778Z,40.47
2018-03-20T15:58:26.629Z,35.83
2018-03-20T16:00:56.419Z,38.00
2018-03-20T16:03:30.875Z,33.10
2018-03-20T16:06:01.796Z,34.57
2018-03-20T16:08:31.915Z,38.87
2018-03-20T16:11:03.269Z,37.37
2018-03-20T16:13:35.450Z,37.60
2018-03-20T16:16:05.729Z,32.40
2018-03-20T16:18:35.484Z,29.50
2018-03-20T16:21:07.832Z,35.63
2018-03-20T16:23:39.833Z,39.77
2018-03-20T16:26:09.957Z,39.37
2018-03-20T16:28:40.021Z,40.10
2018-03-20T16:31:10.183Z,35.70
2018-03-20T16:33:40.808Z,36.63
2018-03-20T16:36:12.464Z,33.97
2018-03-20T16:38:42.856Z,38.00
2018-03-20T16:41:13.546Z,37.17
2018-03-20T16:43:43.519Z,38.13
2018-03-20T16:46:13.569Z,38.97
2018-03-20T16:49:31.156Z,46.90
2018-03-20T16:52:00.613Z,40.10
2018-03-20T16:57:51.674Z,43.17
2018-03-20T17:00:21.255Z,40.47
2018-03-20T17:02:53.172Z,42.53
2018-03-20T17:05:24.009Z,40.10
2018-03-20T17:07:57.264Z,43.20
2018-03-20T17:10:26.770Z,40.30
2018-03-20T17:12:57.095Z,46.33
2018-03-20T17:15:28.685Z,42.23
2018-03-20T17:21:20.323Z,47.13
2018-03-20T17:23:50.052Z,47.07
2018-03-20T17:29:52.224Z,39.50
2018-03-20T17:32:21.491Z,36.00
2018-03-20T17:34:51.226Z,43.35
2018-03-20T17:37:21.852Z,41.55
2018-03-20T17:39:51.177Z,32.67
2018-03-20T17:42:21.298Z,32.50
2018-03-20T17:44:51.422Z,35.43
2018-03-20T17:47:21.068Z,30.40
2018-03-20T17:49:50.411Z,34.58
2018-03-20T17:52:19.859Z,34.20
2018-03-20T17:54:49.238Z,36.95
2018-03-20T17:57:19.521Z,30.27
2018-03-20T17:59:48.911Z,35.40
2018-03-20T18:02:18.802Z,36.53
2018-03-20T18:04:48.060Z,44.65
2018-03-20T18:07:17.525Z,35.15
2018-03-20T18:09:49.578Z,36.72
2018-03-20T18:12:19.757Z,43.28
2018-03-20T18:14:49.108Z,32.28
2018-03-20T18:17:20.058Z,31.08
2018-03-20T18:19:49.824Z,35.03
2018-03-20T18:22:19.225Z,29.02
2018-03-20T18:24:48.774Z,29.77
2018-03-20T18:27:18.130Z,30.92
2018-03-20T18:29:47.727Z,30.75
2018-03-20T18:32:17.330Z,36.67
2018-03-20T18:34:47.360Z,34.35
2018-03-20T18:37:18.791Z,40.08
2018-03-20T18:39:48.365Z,41.22
2018-03-20T18:42:19.314Z,35.10
2018-03-20T18:44:48.973Z,36.75
2018-03-20T18:47:18.459Z,42.50
2018-03-20T18:49:47.788Z,37.03
2018-03-20T18:52:18.101Z,36.75
2018-03-20T18:54:47.468Z,48.35
2018-03-20T18:57:17.081Z,43.28
2018-03-20T18:59:46.538Z,40.67
2018-03-20T19:02:15.941Z,44.72
2018-03-20T19:04:46.136Z,42.95
2018-03-20T19:07:16.487Z,35.40
2018-03-20T19:09:46.110Z,36.80
2018-03-20T19:12:16.571Z,29.87
2018-03-20T19:14:46.812Z,25.10
2018-03-20T19:17:16.142Z,30.40
2018-03-20T19:19:46.597Z,31.80
2018-03-20T19:22:16.097Z,27.08
2018-03-20T19:24:45.521Z,27.80
2018-03-20T19:27:54.824Z,27.20
2018-03-20T19:30:25.086Z,23.23
2018-03-20T19:32:54.839Z,31.45
2018-03-20T19:35:25.050Z,43.72
2018-03-20T19:37:54.690Z,18.12
2018-03-20T19:40:25.639Z,23.10
2018-03-20T19:42:55.387Z,31.37
2018-03-20T19:45:25.581Z,22.45
2018-03-20T19:48:04.531Z,20.95
2018-03-20T19:50:38.174Z,26.75
2018-03-20T19:53:18.159Z,20.95
2018-03-20T19:55:50.083Z,22.25
2018-03-20T19:58:21.158Z,20.40
2018-03-20T20:00:51.535Z,17.27
2018-03-20T20:03:23.303Z,11.95
2018-03-20T20:05:57.670Z,24.10
2018-03-20T20:08:28.230Z,40.53
2018-03-20T20:11:00.999Z,27.10
2018-03-20T20:13:30.927Z,29.20
2018-03-20T20:16:02.609Z,20.33
2018-03-20T20:18:33.380Z,15.95
2018-03-20T20:21:03.050Z,16.83
2018-03-20T20:23:35.663Z,18.17
2018-03-20T20:26:05.563Z,42.67
2018-03-20T20:28:36.042Z,50.20
2018-03-20T20:31:08.417Z,40.60
2018-03-20T20:33:38.366Z,38.15
2018-03-20T20:36:08.902Z,60.70
2018-03-20T20:38:39.665Z,47.92
2018-03-20T20:41:09.281Z,49.70
2018-03-20T20:43:39.097Z,37.97
2018-03-20T20:46:10.740Z,62.72
2018-03-20T20:48:40.511Z,63.55
2018-03-20T20:51:11.225Z,53.67
2018-03-20T20:53:41.671Z,88.07
2018-03-20T20:56:13.741Z,39.38
2018-03-20T20:58:43.445Z,39.17
2018-03-20T21:01:13.175Z,55.33
2018-03-20T21:03:44.387Z,68.70
2018-03-20T21:06:14.731Z,47.70
2018-03-20T21:08:44.417Z,86.07
2018-03-20T21:11:17.158Z,91.63
2018-03-20T21:13:46.853Z,54.40
2018-03-20T21:16:17.807Z,53.70
2018-03-20T21:18:47.596Z,46.70
2018-03-20T21:21:19.534Z,49.63
2018-03-20T21:23:49.219Z,113.77
2018-03-20T21:26:21.784Z,83.30
2018-03-20T21:28:52.184Z,100.27
2018-03-20T21:31:26.373Z,120.83
2018-03-20T21:33:57.293Z,95.40
2018-03-20T21:36:27.226Z,53.17
2018-03-20T21:38:57.048Z,88.53
2018-03-20T21:41:30.650Z,92.83
2018-03-20T21:44:00.458Z,62.37
2018-03-20T21:46:46.757Z,94.87
2018-03-20T21:49:31.692Z,65.33
2018-03-20T21:52:22.908Z,59.83
2018-03-20T21:55:08.038Z,87.80
2018-03-20T21:58:00.989Z,72.80
2018-03-20T22:00:32.531Z,65.33
2018-03-20T22:03:15.539Z,86.17
2018-03-20T22:05:45.270Z,85.80
2018-03-20T22:08:20.168Z,60.27
2018-03-20T22:10:49.821Z,79.70
2018-03-20T22:13:21.765Z,130.07
2018-03-20T22:15:54.101Z,71.83
2018-03-20T22:18:30.048Z,96.40
2018-03-20T22:20:59.966Z,68.07
2018-03-20T22:23:30.722Z,80.23
2018-03-20T22:26:00.483Z,76.00
2018-03-20T22:28:31.399Z,70.50
2018-03-20T22:31:01.062Z,81.73
2018-03-20T22:33:30.630Z,71.03
2018-03-20T22:36:00.932Z,72.97
2018-03-20T22:39:14.261Z,84.83
2018-03-20T22:41:43.886Z,94.17
2018-03-20T22:44:13.697Z,81.10
2018-03-20T22:46:43.201Z,67.63
2018-03-20T22:49:14.851Z,70.97
2018-03-20T22:51:44.437Z,90.73
2018-03-20T22:54:17.363Z,89.90
2018-03-20T22:56:46.668Z,90.73
2018-03-20T22:59:16.128Z,80.63
2018-03-20T23:01:45.659Z,81.33
2018-03-20T23:04:16.411Z,122.17
2018-03-20T23:06:47.707Z,95.63
2018-03-20T23:09:17.885Z,117.90
2018-03-20T23:11:47.323Z,79.27
2018-03-20T23:14:17.722Z,85.33
2018-03-20T23:16:47.124Z,74.97
2018-03-20T23:19:16.779Z,115.67
2018-03-20T23:21:46.246Z,98.93
2018-03-20T23:24:16.847Z,87.80
2018-03-20T23:26:46.654Z,102.97
2018-03-20T23:29:16.415Z,83.10
2018-03-20T23:31:55.741Z,94.93
2018-03-20T23:37:58.570Z,77.93
2018-03-20T23:40:28.455Z,93.43
2018-03-20T23:42:58.177Z,95.00
2018-03-20T23:45:27.927Z,93.13
2018-03-20T23:47:58.023Z,97.77
2018-03-20T23:50:27.641Z,89.73
2018-03-20T23:52:59.452Z,107.87
2018-03-20T23:55:29.028Z,84.07
2018-03-20T23:57:58.969Z,92.23
